createdAt,value
2018-12-04T00:01:57.450Z,9.93
2018-12-04T00:04:29.238Z,17.10
2018-12-04T00:07:03.134Z,12.60
2018-12-04T00:09:35.539Z,12.57
2018-12-04T00:12:07.361Z,11.03
2018-12-04T00:14:39.361Z,13.40
2018-12-04T00:17:11.458Z,11.43
2018-12-04T00:19:41.162Z,12.10
2018-12-04T00:22:15.519Z,14.77
2018-12-04T00:24:47.278Z,7.77
2018-12-04T00:27:19.246Z,12.60
2018-12-04T00:29:51.462Z,14.23
2018-12-04T00:32:23.687Z,12.23
2018-12-04T00:34:58.028Z,14.50
2018-12-04T00:37:32.058Z,21.00
2018-12-04T00:40:06.872Z,19.07
2018-12-04T00:42:39.417Z,13.77
2018-12-04T00:45:11.593Z,24.60
2018-12-04T00:47:43.595Z,13.23
2018-12-04T00:50:16.711Z,12.80
2018-12-04T00:52:50.990Z,9.80
2018-12-04T00:55:23.402Z,10.80
2018-12-04T00:57:55.626Z,12.07
2018-12-04T01:00:27.457Z,11.80
2018-12-04T01:02:59.752Z,12.50
2018-12-04T01:05:31.591Z,11.93
2018-12-04T01:08:03.645Z,16.87
2018-12-04T01:10:34.230Z,14.50
2018-12-04T01:13:06.212Z,12.80
2018-12-04T01:15:40.455Z,13.20
2018-12-04T01:18:12.940Z,12.23
2018-12-04T01:20:45.540Z,9.03
2018-12-04T01:23:17.567Z,10.87
2018-12-04T01:25:47.261Z,10.57
2018-12-04T01:28:19.631Z,18.13
2018-12-04T01:30:52.154Z,16.73
2018-12-04T01:33:24.173Z,18.37
2018-12-04T01:35:55.958Z,13.43
2018-12-04T01:38:27.955Z,8.97
2018-12-04T01:41:00.885Z,12.77
2018-12-04T01:43:33.561Z,17.83
2018-12-04T01:46:09.182Z,11.47
2018-12-04T01:48:41.747Z,16.07
2018-12-04T01:51:22.952Z,13.90
2018-12-04T01:53:57.733Z,10.87
2018-12-04T01:56:30.088Z,11.47
2018-12-04T01:59:05.255Z,10.13
2018-12-04T02:01:39.669Z,13.03
2018-12-04T02:04:11.787Z,15.73
2018-12-04T02:06:44.535Z,9.00
2018-12-04T02:09:18.201Z,6.97
2018-12-04T02:11:56.343Z,19.47
2018-12-04T02:14:29.355Z,5.03
2018-12-04T02:17:02.613Z,7.10
2018-12-04T02:19:37.067Z,15.00
2018-12-04T02:22:09.432Z,9.03
2018-12-04T02:24:41.196Z,11.00
2018-12-04T02:27:13.902Z,13.13
2018-12-04T02:29:48.428Z,11.07
2018-12-04T02:32:22.979Z,15.77
2018-12-04T02:34:55.511Z,17.80
2018-12-04T02:37:36.087Z,16.03
2018-12-04T02:40:10.615Z,10.57
2018-12-04T02:42:52.459Z,4.40
2018-12-04T02:45:25.106Z,11.57
2018-12-04T02:47:57.807Z,9.33
2018-12-04T02:50:29.878Z,8.13
2018-12-04T02:53:05.061Z,7.90
2018-12-04T02:55:37.842Z,10.00
2018-12-04T02:58:13.061Z,7.57
2018-12-04T03:00:54.402Z,12.30
2018-12-04T03:03:35.202Z,16.00
2018-12-04T03:06:08.134Z,8.70
2018-12-04T03:08:42.681Z,10.40
2018-12-04T03:11:15.387Z,10.53
2018-12-04T03:13:48.917Z,17.77
2018-12-04T03:16:20.920Z,6.47
2018-12-04T03:18:52.866Z,9.83
2018-12-04T03:21:24.810Z,9.63
2018-12-04T03:23:57.442Z,7.53
2018-12-04T03:26:32.857Z,10.23
2018-12-04T03:29:04.669Z,10.60
2018-12-04T03:31:36.687Z,8.20
2018-12-04T03:34:10.066Z,14.03
2018-12-04T03:36:43.486Z,8.33
2018-12-04T03:39:15.246Z,7.03
2018-12-04T03:41:49.281Z,6.23
2018-12-04T03:44:21.207Z,9.60
2018-12-04T03:46:55.416Z,10.43
2018-12-04T03:49:28.037Z,3.80
2018-12-04T03:52:03.066Z,1.20
2018-12-04T03:54:34.862Z,0.33
2018-12-04T03:57:07.714Z,0.40
2018-12-04T03:59:42.016Z,0.47
2018-12-04T04:02:14.562Z,0.37
2018-12-04T04:04:47.376Z,0.40
2018-12-04T04:07:20.133Z,0.30
2018-12-04T04:09:53.775Z,0.50
2018-12-04T04:12:25.676Z,0.30
2018-12-04T04:14:59.961Z,0.40
2018-12-04T04:17:32.325Z,0.40
2018-12-04T04:20:05.220Z,0.40
2018-12-04T04:22:37.859Z,0.40
2018-12-04T04:25:09.853Z,0.40
2018-12-04T04:27:41.842Z,0.40
2018-12-04T04:30:18.065Z,1.13
2018-12-04T04:32:50.691Z,0.30
2018-12-04T04:35:25.356Z,0.60
2018-12-04T04:37:57.731Z,0.43
2018-12-04T04:40:30.502Z,0.30
2018-12-04T04:43:00.438Z,0.40
2018-12-04T04:45:32.248Z,0.40
2018-12-04T04:48:07.544Z,0.50
2018-12-04T04:50:39.926Z,0.40
2018-12-04T04:53:11.865Z,0.40
2018-12-04T04:55:44.447Z,0.33
2018-12-04T04:58:16.576Z,0.30
2018-12-04T05:00:50.763Z,0.40
2018-12-04T05:03:23.488Z,0.40
2018-12-04T05:05:57.764Z,0.40
2018-12-04T05:08:38.963Z,0.40
2018-12-04T05:11:11.047Z,0.37
2018-12-04T05:13:42.686Z,0.30
2018-12-04T05:16:16.861Z,0.60
2018-12-04T05:18:49.369Z,0.40
2018-12-04T05:21:23.454Z,0.40
2018-12-04T05:23:55.983Z,0.33
2018-12-04T05:26:28.010Z,1.03
2018-12-04T05:28:59.802Z,0.37
2018-12-04T05:31:33.894Z,0.30
2018-12-04T05:34:05.687Z,0.40
2018-12-04T05:36:39.820Z,0.27
2018-12-04T05:39:12.526Z,0.40
2018-12-04T05:41:45.114Z,0.40
2018-12-04T05:44:16.978Z,0.40
2018-12-04T05:46:49.313Z,0.37
2018-12-04T05:49:21.017Z,0.30
2018-12-04T05:51:55.288Z,0.40
2018-12-04T05:54:27.730Z,0.67
2018-12-04T05:57:00.125Z,0.53
2018-12-04T05:59:32.483Z,0.40
2018-12-04T06:02:04.610Z,0.37
2018-12-04T06:04:36.479Z,0.47
2018-12-04T06:07:08.295Z,0.50
2018-12-04T06:09:40.310Z,0.50
2018-12-04T06:12:12.372Z,0.50
2018-12-04T06:14:46.633Z,0.40
2018-12-04T06:17:19.043Z,0.50
2018-12-04T06:19:51.020Z,0.67
2018-12-04T06:22:22.990Z,0.50
2018-12-04T06:24:53.110Z,0.60
2018-12-04T06:27:25.111Z,0.50
2018-12-04T06:29:57.388Z,0.40
2018-12-04T06:32:29.138Z,0.40
2018-12-04T06:35:02.443Z,0.40
2018-12-04T06:37:35.165Z,0.40
2018-12-04T06:40:09.683Z,0.50
2018-12-04T06:42:42.272Z,0.60
2018-12-04T06:45:14.040Z,2.23
2018-12-04T06:47:46.232Z,0.43
2018-12-04T06:50:18.944Z,0.60
2018-12-04T06:52:50.820Z,4.50
2018-12-04T06:55:22.691Z,0.77
2018-12-04T06:57:57.517Z,0.50
2018-12-04T07:00:29.401Z,0.40
2018-12-04T07:03:01.311Z,7.73
2018-12-04T07:05:33.901Z,0.37
2018-12-04T07:08:05.835Z,0.40
2018-12-04T07:10:38.529Z,0.40
2018-12-04T07:13:10.677Z,0.50
2018-12-04T07:15:44.861Z,0.30
2018-12-04T07:18:16.530Z,1.27
2018-12-04T07:20:48.445Z,0.40
2018-12-04T07:23:20.293Z,0.53
2018-12-04T07:25:54.430Z,0.40
2018-12-04T07:28:26.797Z,0.50
2018-12-04T07:30:58.981Z,2.90
2018-12-04T07:33:30.877Z,0.30
2018-12-04T07:36:02.930Z,0.97
2018-12-04T07:38:34.834Z,0.40
2018-12-04T07:41:06.942Z,0.50
2018-12-04T07:43:39.088Z,0.43
2018-12-04T07:46:11.146Z,0.57
2018-12-04T07:48:43.033Z,0.57
2018-12-04T07:51:17.205Z,0.50
2018-12-04T07:53:48.777Z,0.60
2018-12-04T07:56:20.879Z,0.40
2018-12-04T07:58:52.938Z,0.30
2018-12-04T08:01:24.801Z,0.53
2018-12-04T08:03:56.853Z,1.00
2018-12-04T08:06:28.809Z,0.83
2018-12-04T08:09:00.603Z,0.43
2018-12-04T08:11:33.761Z,0.60
2018-12-04T08:14:07.025Z,0.77
2018-12-04T08:16:38.857Z,0.50
2018-12-04T08:19:10.765Z,0.53
2018-12-04T08:21:43.013Z,0.30
2018-12-04T08:24:17.074Z,1.33
2018-12-04T08:26:50.380Z,2.03
2018-12-04T08:29:22.510Z,0.77
2018-12-04T08:31:54.567Z,0.20
2018-12-04T08:34:26.398Z,0.40
2018-12-04T08:36:58.607Z,0.40
2018-12-04T08:39:30.313Z,0.40
2018-12-04T08:42:03.405Z,0.30
2018-12-04T08:44:37.680Z,0.63
2018-12-04T08:47:09.613Z,0.27
2018-12-04T08:49:41.645Z,0.40
2018-12-04T08:52:15.855Z,0.40
2018-12-04T08:54:50.915Z,0.33
2018-12-04T08:57:23.381Z,0.43
2018-12-04T08:59:55.316Z,0.73
2018-12-04T09:02:27.263Z,0.33
2018-12-04T09:04:59.057Z,0.40
2018-12-04T09:07:31.052Z,0.70
2018-12-04T09:10:03.460Z,0.67
2018-12-04T09:12:36.113Z,0.33
2018-12-04T09:15:08.082Z,0.37
2018-12-04T09:17:40.606Z,0.43
2018-12-04T09:20:12.725Z,0.40
2018-12-04T09:22:44.835Z,0.60
2018-12-04T09:25:16.742Z,0.40
2018-12-04T09:27:48.852Z,0.30
2018-12-04T09:30:23.294Z,0.20
2018-12-04T09:32:55.782Z,0.30
2018-12-04T09:35:27.596Z,0.30
2018-12-04T09:37:59.685Z,15.17
2018-12-04T09:40:31.853Z,0.77
2018-12-04T09:43:06.006Z,3.53
2018-12-04T09:58:20.825Z,0.40
2018-12-04T10:00:52.986Z,0.30
2018-12-04T10:03:24.882Z,0.37
2018-12-04T10:05:57.041Z,0.50
2018-12-04T10:08:28.970Z,0.30
2018-12-04T10:11:03.108Z,0.40
2018-12-04T10:13:35.074Z,0.73
2018-12-04T10:16:07.194Z,0.27
2018-12-04T10:18:39.220Z,0.30
2018-12-04T10:21:11.343Z,0.40
2018-12-04T10:23:41.337Z,0.20
2018-12-04T10:26:13.515Z,0.60
2018-12-04T10:28:45.578Z,0.30
2018-12-04T10:31:17.501Z,0.53
2018-12-04T10:33:51.775Z,0.67
2018-12-04T10:36:23.513Z,0.30
2018-12-04T10:38:55.302Z,0.40
2018-12-04T10:41:29.527Z,0.60
2018-12-04T10:44:01.840Z,0.50
2018-12-04T10:46:34.467Z,0.50
2018-12-04T10:49:06.613Z,0.43
2018-12-04T10:51:38.658Z,0.60
2018-12-04T10:54:10.380Z,0.97
2018-12-04T10:56:42.550Z,0.53
2018-12-04T11:01:50.561Z,0.30
2018-12-04T11:04:22.137Z,0.40
2018-12-04T11:06:54.093Z,0.50
2018-12-04T11:09:25.916Z,0.40
2018-12-04T11:11:57.939Z,0.33
2018-12-04T11:14:29.707Z,0.50
2018-12-04T11:17:03.537Z,0.40
2018-12-04T11:19:35.753Z,0.20
2018-12-04T11:22:07.677Z,0.40
2018-12-04T11:24:39.751Z,2.23
2018-12-04T11:27:11.881Z,0.50
2018-12-04T11:29:43.950Z,0.67
2018-12-04T11:32:15.850Z,2.37
2018-12-04T11:34:47.756Z,0.40
2018-12-04T11:37:19.888Z,0.33
2018-12-04T11:39:51.861Z,0.57
2018-12-04T11:42:23.986Z,0.50
2018-12-04T11:44:55.665Z,0.53
2018-12-04T11:47:27.482Z,0.40
2018-12-04T11:50:01.726Z,0.50
2018-12-04T11:52:34.230Z,0.47
2018-12-04T11:55:06.417Z,0.30
2018-12-04T11:57:37.977Z,0.33
2018-12-04T12:00:17.346Z,0.53
2018-12-04T12:02:49.302Z,0.50
2018-12-04T12:05:21.278Z,1.70
2018-12-04T12:07:53.210Z,0.73
2018-12-04T12:10:25.323Z,0.43
2018-12-04T12:12:57.080Z,0.60
2018-12-04T12:15:28.840Z,0.30
2018-12-04T12:18:03.061Z,0.63
2018-12-04T12:20:35.602Z,0.40
2018-12-04T12:23:09.855Z,0.50
2018-12-04T12:25:41.456Z,0.43
2018-12-04T12:28:13.751Z,0.40
2018-12-04T12:30:45.516Z,0.60
2018-12-04T12:33:17.708Z,0.60
2018-12-04T12:35:49.322Z,3.50
2018-12-04T12:38:23.450Z,0.77
2018-12-04T12:40:57.406Z,0.60
2018-12-04T12:43:29.775Z,0.40
2018-12-04T12:46:03.856Z,0.77
2018-12-04T12:48:35.455Z,1.33
2018-12-04T12:51:07.432Z,0.33
2018-12-04T12:53:39.356Z,0.50
2018-12-04T12:56:11.399Z,0.60
2018-12-04T12:58:43.402Z,0.50
2018-12-04T13:01:15.182Z,1.80
2018-12-04T13:03:47.065Z,0.30
2018-12-04T13:06:19.092Z,0.30
2018-12-04T13:13:52.509Z,0.73
2018-12-04T13:16:24.329Z,2.00
2018-12-04T13:18:58.289Z,0.40
2018-12-04T13:21:32.378Z,0.30
2018-12-04T13:24:03.918Z,0.50
2018-12-04T13:29:08.832Z,2.47
2018-12-04T13:34:13.466Z,0.70
2018-12-04T13:39:18.074Z,0.60
2018-12-04T13:46:53.229Z,0.70
2018-12-04T13:51:58.158Z,0.40
2018-12-04T13:57:04.433Z,0.47
2018-12-04T13:59:37.138Z,0.40
2018-12-04T14:02:11.271Z,0.40
2018-12-04T14:04:43.532Z,0.83
2018-12-04T14:07:17.734Z,0.60
2018-12-04T14:09:50.344Z,0.80
2018-12-04T14:12:22.233Z,13.90
2018-12-04T14:14:54.216Z,0.70
2018-12-04T14:17:26.052Z,1.07
2018-12-04T14:19:58.776Z,1.17
2018-12-04T14:22:31.513Z,0.57
2018-12-04T14:25:03.465Z,0.50
2018-12-04T14:27:35.266Z,0.43
2018-12-04T14:30:10.830Z,0.50
2018-12-04T14:32:42.858Z,0.70
2018-12-04T14:35:14.782Z,0.63
2018-12-04T14:37:46.814Z,0.50
2018-12-04T14:40:18.838Z,0.40
2018-12-04T14:42:54.827Z,0.40
2018-12-04T14:45:27.385Z,0.53
2018-12-04T14:48:02.442Z,0.60
2018-12-04T14:50:34.052Z,1.50
2018-12-04T14:53:06.057Z,0.60
2018-12-04T14:55:37.807Z,0.50
2018-12-04T15:00:42.532Z,0.53
2018-12-04T15:05:49.169Z,0.70
2018-12-04T15:08:21.487Z,1.07
2018-12-04T15:10:53.428Z,0.40
2018-12-04T15:13:25.484Z,0.60
2018-12-04T15:15:57.240Z,0.50
2018-12-04T15:18:29.042Z,0.47
2018-12-04T15:21:00.926Z,0.50
2018-12-04T15:23:32.805Z,3.23
2018-12-04T15:26:04.798Z,0.63
2018-12-04T15:28:36.750Z,0.60
2018-12-04T15:31:08.639Z,0.73
2018-12-04T15:33:40.333Z,0.43
2018-12-04T15:36:14.522Z,0.60
2018-12-04T15:38:46.874Z,0.53
2018-12-04T15:41:18.739Z,0.60
2018-12-04T15:43:50.670Z,0.53
2018-12-04T15:46:22.395Z,1.60
2018-12-04T15:48:54.625Z,0.40
2018-12-04T15:51:26.602Z,0.70
2018-12-04T15:53:58.537Z,0.60
2018-12-04T15:56:30.506Z,1.30
2018-12-04T15:59:02.930Z,0.50
2018-12-04T16:01:35.029Z,0.80
2018-12-04T16:04:07.006Z,0.50
2018-12-04T16:06:41.188Z,0.60
2018-12-04T16:09:13.730Z,0.40
2018-12-04T16:11:43.579Z,0.67
2018-12-04T16:14:15.458Z,2.30
2018-12-04T16:16:47.546Z,0.67
2018-12-04T16:19:21.745Z,1.37
2018-12-04T16:21:53.508Z,0.87
2018-12-04T16:24:25.290Z,0.50
2018-12-04T16:26:57.246Z,0.90
2018-12-04T16:29:29.018Z,0.50
2018-12-04T16:32:01.982Z,0.63
2018-12-04T16:34:36.476Z,0.60
2018-12-04T16:37:08.908Z,0.40
2018-12-04T16:39:41.058Z,0.70
2018-12-04T16:42:19.210Z,0.63
2018-12-04T16:44:51.730Z,0.80
2018-12-04T16:47:23.682Z,0.63
2018-12-04T16:49:55.678Z,0.73
2018-12-04T16:52:27.491Z,0.50
2018-12-04T16:55:02.561Z,1.00
2018-12-04T16:57:34.417Z,0.57
2018-12-04T17:00:08.491Z,0.87
2018-12-04T17:02:45.937Z,0.80
2018-12-04T17:05:20.824Z,0.73
2018-12-04T17:07:53.655Z,2.30
2018-12-04T17:10:26.176Z,0.80
2018-12-04T17:12:58.491Z,0.87
2018-12-04T17:15:30.494Z,1.57
2018-12-04T17:18:02.348Z,0.80
2018-12-04T17:20:36.606Z,4.57
2018-12-04T17:23:09.782Z,1.10
2018-12-04T17:25:44.112Z,1.10
2018-12-04T17:31:12.471Z,1.67
2018-12-04T17:40:27.110Z,1.30
2018-12-04T17:43:26.340Z,2.73
2018-12-04T17:49:07.166Z,0.83
2018-12-04T17:51:39.783Z,4.23
2018-12-04T17:54:12.594Z,1.50
2018-12-04T17:56:44.649Z,2.30
2018-12-04T17:59:16.468Z,1.67
2018-12-04T18:02:07.754Z,1.27
2018-12-04T18:07:42.852Z,1.83
2018-12-04T18:15:33.399Z,1.57
2018-12-04T18:18:05.519Z,1.43
2018-12-04T18:20:37.113Z,1.70
2018-12-04T18:23:11.954Z,1.00
2018-12-04T18:25:48.523Z,1.40
2018-12-04T18:28:21.152Z,1.63
2018-12-04T18:30:53.055Z,1.17
2018-12-04T18:33:27.536Z,1.77
2018-12-04T18:35:59.873Z,2.13
2018-12-04T18:38:35.687Z,0.97
2018-12-04T18:41:08.279Z,0.73
2018-12-04T18:43:44.300Z,0.73
2018-12-04T18:46:16.549Z,4.07
2018-12-04T18:48:54.367Z,1.70
2018-12-04T18:51:26.868Z,1.60
2018-12-04T18:54:06.204Z,1.37
2018-12-04T18:56:38.569Z,0.80
2018-12-04T18:59:10.556Z,0.73
2018-12-04T19:01:44.803Z,0.80
2018-12-04T19:04:16.926Z,0.73
2018-12-04T19:06:48.790Z,0.70
2018-12-04T19:09:20.938Z,0.53
2018-12-04T19:11:52.830Z,0.67
2018-12-04T19:14:24.824Z,0.80
2018-12-04T19:16:57.017Z,1.20
2018-12-04T19:19:30.001Z,0.90
2018-12-04T19:22:04.097Z,1.00
2018-12-04T19:24:36.599Z,1.23
2018-12-04T19:27:10.745Z,0.73
2018-12-04T19:29:43.203Z,0.77
2018-12-04T19:32:15.417Z,0.50
2018-12-04T19:34:49.863Z,3.00
2018-12-04T19:37:22.951Z,1.30
2018-12-04T19:39:55.286Z,1.03
2018-12-04T19:42:27.352Z,0.80
2018-12-04T19:44:59.525Z,1.03
2018-12-04T19:47:31.405Z,1.73
2018-12-04T19:50:03.093Z,0.70
2018-12-04T19:52:35.260Z,1.77
2018-12-04T19:55:09.537Z,0.57
2018-12-04T19:57:42.192Z,1.03
2018-12-04T20:00:16.271Z,1.23
2018-12-04T20:02:48.665Z,1.53
2018-12-04T20:05:22.675Z,0.67
2018-12-04T20:07:55.239Z,1.13
2018-12-04T20:10:27.155Z,2.50
2018-12-04T20:12:58.967Z,1.50
2018-12-04T20:15:30.773Z,1.37
2018-12-04T20:18:03.153Z,3.73
2018-12-04T20:20:35.262Z,1.87
2018-12-04T20:23:07.359Z,1.73
2018-12-04T20:28:10.968Z,0.80
2018-12-04T20:30:51.353Z,2.33
2018-12-04T20:33:23.610Z,0.50
2018-12-04T20:35:55.382Z,0.50
2018-12-04T20:38:27.491Z,2.60
2018-12-04T20:40:59.280Z,1.30
2018-12-04T20:43:31.043Z,0.80
2018-12-04T20:46:06.052Z,1.00
2018-12-04T20:48:37.353Z,8.03
2018-12-04T20:51:09.379Z,0.93
2018-12-04T20:53:41.636Z,0.60
2018-12-04T20:56:15.738Z,0.67
2018-12-04T20:58:48.481Z,0.83
2018-12-04T21:01:20.228Z,0.70
2018-12-04T21:03:52.376Z,1.17
2018-12-04T21:06:24.114Z,1.27
2018-12-04T21:08:58.200Z,0.53
2018-12-04T21:11:30.220Z,3.83
2018-12-04T21:14:03.238Z,1.60
2018-12-04T21:16:35.107Z,1.90
2018-12-04T21:19:06.980Z,1.10
2018-12-04T21:21:38.912Z,1.43
2018-12-04T21:24:10.718Z,1.67
2018-12-04T21:26:42.688Z,2.30
2018-12-04T21:31:54.649Z,0.97
2018-12-04T21:34:33.381Z,2.13
2018-12-04T21:37:11.083Z,0.80
2018-12-04T21:39:49.332Z,0.50
2018-12-04T21:42:26.101Z,0.60
2018-12-04T21:45:03.660Z,3.10
2018-12-04T21:47:40.744Z,1.17
2018-12-04T21:50:12.678Z,4.37
2018-12-04T21:52:44.425Z,1.13
2018-12-04T21:55:16.679Z,1.00
2018-12-04T21:57:48.993Z,3.93
2018-12-04T22:00:21.280Z,0.90
2018-12-04T22:02:55.299Z,1.97
2018-12-04T22:05:29.250Z,0.70
2018-12-04T22:08:01.755Z,0.90
2018-12-04T22:10:33.929Z,1.43
2018-12-04T22:13:08.005Z,1.27
2018-12-04T22:15:40.284Z,2.57
2018-12-04T22:18:13.675Z,3.97
2018-12-04T22:20:47.021Z,4.63
2018-12-04T22:23:21.187Z,1.17
2018-12-04T22:25:55.509Z,1.77
2018-12-04T22:28:27.653Z,1.13
2018-12-04T22:31:02.988Z,1.40
2018-12-04T22:33:35.648Z,1.60
2018-12-04T22:36:07.554Z,1.03
2018-12-04T22:38:39.616Z,0.60
2018-12-04T22:41:11.457Z,1.57
2018-12-04T22:43:43.798Z,1.40
2018-12-04T22:46:15.601Z,0.93
2018-12-04T22:48:47.678Z,0.60
2018-12-04T22:51:19.503Z,1.33
2018-12-04T22:53:51.412Z,0.83
2018-12-04T22:56:23.270Z,0.60
2018-12-04T22:58:55.151Z,7.03
2018-12-04T23:01:37.130Z,0.87
2018-12-04T23:04:09.387Z,2.10
2018-12-04T23:06:41.826Z,3.60
2018-12-04T23:09:13.771Z,4.03
2018-12-04T23:11:47.297Z,0.90
2018-12-04T23:14:19.551Z,0.60
2018-12-04T23:16:51.578Z,4.20
2018-12-04T23:19:23.613Z,2.37
2018-12-04T23:21:55.710Z,1.20
2018-12-04T23:24:27.391Z,7.40
2018-12-04T23:26:59.380Z,3.50
2018-12-04T23:29:31.063Z,1.10
2018-12-04T23:32:02.903Z,0.80
2018-12-04T23:34:34.910Z,1.90
2018-12-04T23:37:06.738Z,1.57
2018-12-04T23:39:38.698Z,1.00
2018-12-04T23:42:10.911Z,0.80
2018-12-04T23:44:43.277Z,2.00
2018-12-04T23:47:15.614Z,3.50
2018-12-04T23:49:49.852Z,0.70
2018-12-04T23:52:22.282Z,0.70
2018-12-04T23:54:54.105Z,1.30
2018-12-04T23:57:26.315Z,0.40
2018-12-04T23:59:58.604Z,0.90
